Time;durP1;ratioP1;P1;durP2;ratioP2;P2;SDS_P1;SDS_P2;PMS_P1;PMS_P2;Temp;Humidity;BMP_temperature;BMP_pressure;BME280_temperature;BME280_humidity;BME280_pressure;Samples;Min_cycle;Max_cycle;Signal;HPM_P1;HPM_P2
2023/10/13 00:01:54;;;;;;;70.05;47.10;;;14.90;99.90;;;;;;5012401;28;20059;-83
2023/10/13 00:04:24;;;;;;;71.95;44.40;;;14.90;99.90;;;;;;5014042;28;20112;-81
2023/10/13 00:06:52;;;;;;;67.03;42.60;;;15.00;99.90;;;;;;5013171;28;20056;-80
2023/10/13 00:09:19;;;;;;;58.67;42.40;;;15.00;99.90;;;;;;5013123;28;20050;-83
2023/10/13 00:11:44;;;;;;;55.28;38.88;;;15.00;99.90;;;;;;5013381;28;20129;-83
2023/10/13 00:14:17;;;;;;;67.38;47.72;;;15.00;99.90;;;;;;5013486;28;20081;-82
2023/10/13 00:19:45;;;;;;;57.70;39.33;;;15.10;99.90;;;;;;5013360;28;20125;-80
2023/10/13 00:22:12;;;;;;;65.10;43.45;;;15.10;99.90;;;;;;5012961;28;20046;-82
2023/10/13 00:24:45;;;;;;;53.25;37.42;;;15.10;99.90;;;;;;5012181;28;20476;-81
2023/10/13 00:27:36;;;;;;;54.47;43.20;;;15.20;99.90;;;;;;5012284;28;20046;-82
2023/10/13 00:30:22;;;;;;;53.25;38.03;;;15.20;99.90;;;;;;5013637;28;20053;-83
2023/10/13 00:32:53;;;;;;;53.72;37.83;;;15.30;99.90;;;;;;5013312;28;20054;-79
2023/10/13 00:35:25;;;;;;;54.08;37.67;;;15.30;99.90;;;;;;5013322;28;20049;-82
2023/10/13 00:37:56;;;;;;;53.22;39.08;;;15.30;99.90;;;;;;5013414;28;20148;-81
2023/10/13 00:40:42;;;;;;;61.30;42.22;;;15.30;99.90;;;;;;5013101;28;20049;-81
2023/10/13 00:45:54;;;;;;;65.22;44.65;;;15.30;99.90;;;;;;5013290;28;20053;-82
2023/10/13 00:48:33;;;;;;;57.85;39.92;;;15.40;99.90;;;;;;5013111;28;20120;-83
2023/10/13 00:51:08;;;;;;;49.08;37.28;;;15.50;99.90;;;;;;5012725;28;20049;-83
2023/10/13 00:53:44;;;;;;;53.58;36.88;;;15.50;99.90;;;;;;5012128;28;20089;-81
2023/10/13 00:56:18;;;;;;;54.13;38.88;;;15.50;99.90;;;;;;5012805;28;20048;-81
2023/10/13 00:58:50;;;;;;;49.17;37.47;;;15.50;99.90;;;;;;5013015;28;20056;-83
2023/10/13 01:01:21;;;;;;;46.65;32.95;;;15.50;99.90;;;;;;5012786;28;20570;-83
2023/10/13 01:03:48;;;;;;;49.65;36.35;;;15.50;99.90;;;;;;5011610;28;20058;-81
2023/10/13 01:06:16;;;;;;;48.78;37.22;;;15.70;99.90;;;;;;5013010;28;20076;-82
2023/10/13 01:08:45;;;;;;;45.25;33.90;;;15.70;99.90;;;;;;5012988;28;20050;-81
2023/10/13 01:11:10;;;;;;;40.95;31.40;;;15.70;99.90;;;;;;5013275;28;20186;-83
2023/10/13 01:13:36;;;;;;;51.53;35.92;;;15.80;99.90;;;;;;5012818;28;20053;-82
2023/10/13 01:16:07;;;;;;;43.28;30.95;;;15.80;99.90;;;;;;5012575;28;20045;-81
2023/10/13 01:18:47;;;;;;;41.28;31.10;;;15.80;99.90;;;;;;5015373;28;20465;-82
2023/10/13 01:21:15;;;;;;;44.60;33.15;;;15.80;99.90;;;;;;5017272;28;20073;-80
2023/10/13 01:23:42;;;;;;;40.95;31.52;;;15.80;99.90;;;;;;5017057;28;20046;-83
2023/10/13 01:26:09;;;;;;;42.78;31.35;;;15.80;99.90;;;;;;5016579;28;20045;-82
2023/10/13 01:28:44;;;;;;;36.45;27.38;;;15.90;99.90;;;;;;5016667;28;20125;-83
2023/10/13 01:31:16;;;;;;;48.08;29.42;;;16.00;99.90;;;;;;5016788;28;20071;-83
2023/10/13 01:33:42;;;;;;;35.67;26.60;;;16.00;99.90;;;;;;5016524;28;20181;-82
2023/10/13 01:36:07;;;;;;;31.88;25.55;;;16.10;99.90;;;;;;5016814;28;20458;-82
2023/10/13 01:38:33;;;;;;;37.67;26.80;;;16.10;99.90;;;;;;5016830;28;20049;-81
2023/10/13 01:40:59;;;;;;;33.42;25.60;;;16.10;99.90;;;;;;5016224;28;20042;-81
2023/10/13 01:43:25;;;;;;;39.97;25.52;;;16.10;99.90;;;;;;5016402;28;20049;-82
2023/10/13 01:45:50;;;;;;;36.25;26.60;;;16.20;99.90;;;;;;5016633;28;20042;-82
2023/10/13 01:48:18;;;;;;;38.72;24.35;;;16.20;99.90;;;;;;5015286;28;20119;-82
2023/10/13 01:50:55;;;;;;;34.28;24.65;;;16.20;99.90;;;;;;5016166;28;20053;-80
2023/10/13 01:53:22;;;;;;;35.33;23.95;;;16.30;99.90;;;;;;5016301;28;20177;-81
2023/10/13 01:55:50;;;;;;;29.83;22.55;;;16.20;99.90;;;;;;5016059;28;20050;-82
2023/10/13 01:58:16;;;;;;;29.27;22.20;;;16.20;99.90;;;;;;5016670;28;20071;-82
2023/10/13 02:00:47;;;;;;;26.75;21.70;;;16.30;99.90;;;;;;5015959;28;20046;-82
2023/10/13 02:03:16;;;;;;;26.52;20.98;;;16.30;99.90;;;;;;5016024;28;20124;-81
2023/10/13 02:05:49;;;;;;;30.13;21.65;;;16.30;99.90;;;;;;5015785;28;20054;-79
2023/10/13 02:08:25;;;;;;;35.17;25.75;;;16.30;99.90;;;;;;5015904;28;20053;-81
2023/10/13 02:10:55;;;;;;;34.80;23.08;;;16.30;99.90;;;;;;5016437;28;20439;-82
2023/10/13 02:13:22;;;;;;;32.10;23.55;;;16.40;99.90;;;;;;5016311;28;20407;-82
2023/10/13 02:15:52;;;;;;;34.55;25.70;;;16.40;99.90;;;;;;5015716;28;20041;-83
2023/10/13 02:18:41;;;;;;;35.10;24.30;;;16.30;99.90;;;;;;5015729;28;20053;-85
2023/10/13 02:21:14;;;;;;;32.28;25.13;;;16.40;99.90;;;;;;5016172;28;20050;-82
2023/10/13 02:23:59;;;;;;;30.88;22.48;;;16.40;99.90;;;;;;5016162;28;20057;-82
2023/10/13 02:26:38;;;;;;;24.23;20.00;;;16.50;99.90;;;;;;5015534;28;20076;-82
2023/10/13 02:29:07;;;;;;;31.65;21.35;;;16.40;99.90;;;;;;5015239;28;20132;-81
2023/10/13 02:31:35;;;;;;;28.67;23.52;;;16.40;99.90;;;;;;5014437;28;20041;-80
2023/10/13 02:34:07;;;;;;;28.23;23.52;;;16.40;99.90;;;;;;5015496;28;20060;-83
2023/10/13 02:36:38;;;;;;;38.35;27.95;;;16.50;99.90;;;;;;5015428;28;20147;-81
2023/10/13 02:39:07;;;;;;;34.10;26.90;;;16.50;99.90;;;;;;5015004;28;20141;-83
2023/10/13 02:41:37;;;;;;;34.15;24.60;;;16.40;99.90;;;;;;5015326;28;20038;-81
2023/10/13 02:44:06;;;;;;;35.00;26.63;;;16.40;99.90;;;;;;5013787;28;20049;-81
2023/10/13 02:46:35;;;;;;;32.75;24.30;;;16.50;99.90;;;;;;5015473;28;20452;-80
2023/10/13 02:49:10;;;;;;;38.42;25.58;;;16.50;99.90;;;;;;5015408;28;20057;-82
2023/10/13 02:51:41;;;;;;;40.92;27.60;;;16.60;99.90;;;;;;5015454;28;20120;-82
2023/10/13 02:54:11;;;;;;;42.83;29.20;;;16.60;99.90;;;;;;5015082;28;20088;-82
2023/10/13 02:56:48;;;;;;;40.20;28.80;;;16.50;99.90;;;;;;5015173;28;20045;-80
2023/10/13 02:59:14;;;;;;;32.30;26.60;;;16.50;99.90;;;;;;5015563;28;20406;-81
2023/10/13 03:01:40;;;;;;;40.45;28.67;;;16.60;99.90;;;;;;5015435;28;20049;-81
2023/10/13 03:04:08;;;;;;;39.85;28.58;;;16.50;99.90;;;;;;5015081;28;20475;-81
2023/10/13 03:06:35;;;;;;;36.42;26.85;;;16.50;99.90;;;;;;5015131;28;20434;-81
2023/10/13 03:09:16;;;;;;;38.35;27.77;;;16.50;99.90;;;;;;5014715;28;20053;-81
2023/10/13 03:11:47;;;;;;;37.00;26.70;;;16.50;99.90;;;;;;5014701;28;20053;-81
2023/10/13 03:14:23;;;;;;;37.28;27.45;;;16.60;99.90;;;;;;5014767;28;20057;-81
2023/10/13 03:16:55;;;;;;;36.17;26.08;;;16.50;99.90;;;;;;5014562;28;20046;-82
2023/10/13 03:19:21;;;;;;;34.60;24.35;;;16.60;99.90;;;;;;5015259;28;20045;-80
2023/10/13 03:21:57;;;;;;;32.78;23.88;;;16.50;99.90;;;;;;5014461;28;20042;-80
2023/10/13 03:24:33;;;;;;;34.78;25.10;;;16.50;99.90;;;;;;5014461;28;20057;-81
2023/10/13 03:27:08;;;;;;;31.67;21.08;;;16.50;99.90;;;;;;5014420;28;20111;-80
2023/10/13 03:29:43;;;;;;;30.02;20.45;;;16.60;99.90;;;;;;5014008;28;20060;-80
2023/10/13 03:32:16;;;;;;;28.75;21.08;;;16.60;99.90;;;;;;5014164;28;20176;-81
2023/10/13 03:37:22;;;;;;;23.77;17.92;;;16.60;99.90;;;;;;5014396;28;20054;-80
2023/10/13 03:39:48;;;;;;;21.77;17.17;;;16.60;99.90;;;;;;5013892;28;20057;-81
2023/10/13 03:42:18;;;;;;;19.35;17.35;;;16.50;99.90;;;;;;5013158;28;20073;-80
2023/10/13 03:44:47;;;;;;;22.00;17.65;;;16.50;99.90;;;;;;5013982;28;20494;-80
2023/10/13 03:47:26;;;;;;;22.02;17.92;;;16.50;99.90;;;;;;5014253;28;20038;-81
2023/10/13 03:50:14;;;;;;;24.83;19.08;;;16.50;99.90;;;;;;5013174;28;20061;-80
2023/10/13 03:52:39;;;;;;;25.85;20.08;;;16.60;99.90;;;;;;5013823;28;20057;-80
2023/10/13 03:55:06;;;;;;;27.95;21.90;;;16.60;99.90;;;;;;5012876;28;20076;-81
2023/10/13 03:57:37;;;;;;;31.27;22.52;;;16.60;99.90;;;;;;5013743;28;20095;-80
2023/10/13 04:00:09;;;;;;;26.00;20.90;;;16.50;99.90;;;;;;5012926;28;20124;-81
2023/10/13 04:02:36;;;;;;;29.63;22.73;;;16.60;99.90;;;;;;5013967;28;20054;-81
2023/10/13 04:05:09;;;;;;;25.25;20.08;;;16.50;99.90;;;;;;5014103;28;20065;-80
2023/10/13 04:11:52;;;;;;;24.45;19.48;;;16.40;99.90;;;;;;5014114;28;19948;-81
2023/10/13 04:15:39;;;;;;;24.83;18.27;;;16.50;99.90;;;;;;5013772;28;20056;-81
2023/10/13 04:18:14;;;;;;;19.58;16.05;;;16.60;99.90;;;;;;5013390;28;20080;-81
2023/10/13 04:20:46;;;;;;;25.95;18.58;;;16.50;99.90;;;;;;5013302;28;20050;-80
2023/10/13 04:23:18;;;;;;;22.23;16.70;;;16.50;99.90;;;;;;5013503;28;20042;-81
2023/10/13 04:41:56;;;;;;;25.63;16.63;;;16.50;99.90;;;;;;5013469;28;20054;-82
2023/10/13 04:47:09;;;;;;;21.70;16.35;;;16.60;99.90;;;;;;5013249;28;20046;-80
2023/10/13 06:29:55;;;;;;;9.57;6.78;;;16.10;99.90;;;;;;5015659;28;20050;-78
2023/10/13 06:32:25;;;;;;;9.30;7.30;;;16.20;99.90;;;;;;5015728;28;20120;-81
2023/10/13 06:34:57;;;;;;;7.90;6.78;;;16.30;99.90;;;;;;5015677;28;20053;-80
2023/10/13 06:37:34;;;;;;;6.82;6.13;;;17.00;99.90;;;;;;5015765;28;20091;-82
2023/10/13 06:40:22;;;;;;;6.55;5.82;;;16.20;99.90;;;;;;5015400;28;20050;-82
2023/10/13 06:42:48;;;;;;;7.22;5.43;;;16.20;99.90;;;;;;5015014;28;20050;-81
2023/10/13 06:45:17;;;;;;;6.30;5.28;;;16.20;99.90;;;;;;5015333;28;20165;-81
2023/10/13 06:47:43;;;;;;;5.45;4.78;;;16.30;99.90;;;;;;5014262;28;20046;-83
2023/10/13 06:50:38;;;;;;;6.43;4.55;;;16.20;99.90;;;;;;5015312;28;20045;-82
2023/10/13 06:53:01;;;;;;;5.90;4.93;;;16.30;99.90;;;;;;5014697;28;20061;-83
2023/10/13 06:55:27;;;;;;;6.47;5.30;;;16.30;99.90;;;;;;5013335;28;20496;-81
2023/10/13 06:57:59;;;;;;;5.60;5.05;;;16.30;99.90;;;;;;5014709;28;20045;-81
2023/10/13 07:00:29;;;;;;;5.65;4.90;;;16.30;99.90;;;;;;5014837;28;20623;-82
2023/10/13 07:03:17;;;;;;;5.72;4.97;;;16.40;99.90;;;;;;5014981;28;20069;-84
2023/10/13 07:05:44;;;;;;;8.48;4.80;;;16.50;99.90;;;;;;5014858;28;20076;-79
2023/10/13 07:08:14;;;;;;;6.97;4.70;;;16.50;99.90;;;;;;5014234;28;20050;-83
2023/10/13 07:11:02;;;;;;;6.10;4.25;;;16.40;99.90;;;;;;5015179;28;20050;-86
2023/10/13 07:13:31;;;;;;;5.57;4.20;;;16.50;99.90;;;;;;5014815;28;20547;-82
2023/10/13 07:16:05;;;;;;;5.05;4.03;;;16.50;99.90;;;;;;5012569;28;20085;-81
2023/10/13 07:18:36;;;;;;;6.05;4.10;;;16.60;99.90;;;;;;5014658;28;20061;-82
2023/10/13 07:21:09;;;;;;;7.32;4.78;;;16.60;99.90;;;;;;5014449;28;20124;-83
2023/10/13 07:23:38;;;;;;;;;;;16.60;99.90;;;;;;5015063;28;20050;-83
2023/10/13 07:26:08;;;;;;;7.38;4.50;;;16.60;99.90;;;;;;5014712;28;19936;-83
2023/10/13 07:28:43;;;;;;;8.93;4.38;;;16.70;99.90;;;;;;5014679;28;20125;-84
2023/10/13 07:31:15;;;;;;;6.50;4.05;;;16.70;99.90;;;;;;5014830;28;20042;-82
2023/10/13 07:33:41;;;;;;;6.35;3.85;;;16.60;99.90;;;;;;5014454;28;20042;-83
2023/10/13 07:36:19;;;;;;;6.72;4.43;;;16.60;99.90;;;;;;5014320;28;20050;-85
2023/10/13 07:38:49;;;;;;;6.53;4.63;;;16.60;99.90;;;;;;5013376;28;20537;-80
2023/10/13 07:41:15;;;;;;;6.05;4.88;;;16.70;99.90;;;;;;5013160;28;20406;-84
2023/10/13 07:43:45;;;;;;;6.47;4.70;;;16.70;99.90;;;;;;5012921;28;20116;-82
2023/10/13 07:46:12;;;;;;;8.45;4.68;;;16.70;99.90;;;;;;5013892;28;20441;-83
2023/10/13 07:48:41;;;;;;;6.72;4.68;;;16.70;99.90;;;;;;5013967;28;20523;-81
2023/10/13 07:51:22;;;;;;;8.10;4.90;;;16.70;99.90;;;;;;5013412;28;20447;-84
2023/10/13 07:53:52;;;;;;;7.80;4.85;;;16.70;99.90;;;;;;5013344;28;20371;-81
2023/10/13 07:56:18;;;;;;;7.70;5.13;;;16.70;99.90;;;;;;5013116;28;20526;-84
2023/10/13 07:59:00;;;;;;;6.88;5.13;;;16.60;99.90;;;;;;5013729;28;20061;-83
2023/10/13 08:01:26;;;;;;;7.47;4.93;;;16.70;99.90;;;;;;5013778;28;20128;-84
2023/10/13 08:04:09;;;;;;;10.82;5.25;;;16.60;99.90;;;;;;5013851;28;20070;-81
2023/10/13 08:06:37;;;;;;;9.25;4.75;;;16.70;99.90;;;;;;5013752;28;20068;-87
2023/10/13 08:09:09;;;;;;;9.75;5.97;;;16.70;99.90;;;;;;5013416;28;20121;-82
2023/10/13 08:11:38;;;;;;;9.52;5.53;;;16.70;99.90;;;;;;5014136;28;20045;-83
2023/10/13 08:14:11;;;;;;;10.13;5.35;;;16.80;99.90;;;;;;5013780;28;20053;-82
2023/10/13 08:16:54;;;;;;;12.07;4.70;;;16.80;99.90;;;;;;5013756;28;20042;-86
2023/10/13 08:19:27;;;;;;;;;;;16.90;99.90;;;;;;5014145;28;20491;-81
2023/10/13 08:21:58;;;;;;;11.10;6.15;;;16.70;99.90;;;;;;5013394;28;19922;-78
2023/10/13 08:27:35;;;;;;;8.95;5.07;;;16.80;99.90;;;;;;4993650;28;20073;-86
2023/10/13 08:42:52;;;;;;;11.07;6.32;;;17.00;99.90;;;;;;5013000;28;20057;-83
2023/10/13 08:48:07;;;;;;;8.50;6.32;;;17.00;99.90;;;;;;5013307;28;20050;-84
2023/10/13 08:56:17;;;;;;;10.15;6.65;;;17.10;99.90;;;;;;5012600;28;20054;-80
2023/10/13 09:06:47;;;;;;;15.73;8.43;;;17.20;99.90;;;;;;5012694;28;20115;-80
2023/10/13 09:12:10;;;;;;;16.55;7.70;;;17.40;99.90;;;;;;5012934;28;20060;-80
2023/10/13 09:14:44;;;;;;;14.82;8.55;;;17.40;99.90;;;;;;5012925;28;20046;-83
2023/10/13 09:17:12;;;;;;;12.48;8.13;;;17.50;99.90;;;;;;5012788;28;20041;-81
2023/10/13 09:19:49;;;;;;;13.60;9.07;;;17.70;99.90;;;;;;5012342;28;20049;-81
2023/10/13 09:22:27;;;;;;;15.00;8.68;;;17.80;99.90;;;;;;5012544;28;20061;-79
2023/10/13 09:25:00;;;;;;;12.05;7.57;;;17.80;99.90;;;;;;5012745;28;20049;-82
2023/10/13 09:27:28;;;;;;;11.75;8.18;;;17.80;99.90;;;;;;5012947;28;20097;-82
2023/10/13 09:33:08;;;;;;;12.45;8.30;;;17.90;99.90;;;;;;5012279;28;20057;-81
2023/10/13 09:35:36;;;;;;;11.65;7.72;;;17.90;99.90;;;;;;5012410;28;20185;-79
2023/10/13 09:38:03;;;;;;;13.23;7.80;;;18.00;99.90;;;;;;5012740;28;20052;-81
2023/10/13 09:43:14;;;;;;;15.57;8.57;;;18.30;99.90;;;;;;5016624;28;20054;-83
2023/10/13 09:45:56;;;;;;;10.90;7.65;;;18.30;99.90;;;;;;5016297;28;20072;-79
2023/10/13 09:48:26;;;;;;;11.73;6.75;;;18.30;99.90;;;;;;5016230;28;20092;-81
2023/10/13 09:50:59;;;;;;;13.13;7.15;;;18.40;99.90;;;;;;5016444;28;20050;-81
2023/10/13 09:53:25;;;;;;;9.30;7.90;;;18.50;99.90;;;;;;5016078;28;20046;-80
2023/10/13 09:56:11;;;;;;;10.45;6.47;;;18.50;99.90;;;;;;5015909;28;20315;-79
2023/10/13 09:58:57;;;;;;;11.02;6.63;;;18.50;99.90;;;;;;5015991;28;20042;-83
2023/10/13 10:01:33;;;;;;;14.23;7.55;;;18.60;99.90;;;;;;5015735;28;20121;-81
2023/10/13 10:06:56;;;;;;;12.30;5.80;;;18.60;99.90;;;;;;5015790;28;20048;-82
2023/10/13 10:09:37;;;;;;;13.13;5.68;;;18.70;99.90;;;;;;5016202;28;20049;-81
2023/10/13 10:12:22;;;;;;;11.07;6.68;;;18.80;99.90;;;;;;5015731;28;20042;-83
2023/10/13 10:14:51;;;;;;;10.50;5.60;;;18.80;99.90;;;;;;5014486;28;20045;-81
2023/10/13 10:17:18;;;;;;;12.20;6.60;;;19.00;99.90;;;;;;5015605;28;20056;-78
2023/10/13 10:19:54;;;;;;;12.23;6.25;;;19.10;99.90;;;;;;5015858;28;20112;-80
2023/10/13 10:22:35;;;;;;;9.77;5.85;;;19.10;99.90;;;;;;5015861;28;20081;-82
2023/10/13 10:25:03;;;;;;;10.90;6.32;;;19.20;99.90;;;;;;5015517;28;20129;-84
2023/10/13 10:27:31;;;;;;;11.98;5.78;;;19.20;99.90;;;;;;5015659;28;20169;-82
2023/10/13 10:29:57;;;;;;;10.13;6.25;;;19.30;99.90;;;;;;5015648;28;20046;-83
2023/10/13 10:32:40;;;;;;;7.30;5.32;;;19.30;99.90;;;;;;5015362;28;20042;-83
2023/10/13 10:35:20;;;;;;;13.20;6.05;;;19.20;99.90;;;;;;5015309;28;20054;-86
2023/10/13 10:37:49;;;;;;;9.07;6.15;;;19.30;99.90;;;;;;5015310;28;20046;-85
2023/10/13 10:43:20;;;;;;;9.80;6.38;;;19.50;99.90;;;;;;4973706;28;20058;-81
2023/10/13 10:45:51;;;;;;;11.57;6.18;;;19.50;99.90;;;;;;4973644;28;20050;-86
2023/10/13 10:48:21;;;;;;;11.02;6.35;;;19.50;99.90;;;;;;4984147;28;20057;-81
2023/10/13 10:50:56;;;;;;;12.98;6.00;;;19.60;99.90;;;;;;5014841;28;20046;-85
2023/10/13 10:53:33;;;;;;;15.70;6.05;;;19.50;99.90;;;;;;5014885;28;20052;-82
2023/10/13 10:56:08;;;;;;;9.55;5.63;;;19.60;99.90;;;;;;5015247;28;20137;-82
2023/10/13 10:58:43;;;;;;;11.82;5.78;;;19.70;99.90;;;;;;5014828;28;20046;-82
2023/10/13 11:01:18;;;;;;;15.10;5.75;;;19.70;99.90;;;;;;5014800;28;20049;-81
2023/10/13 11:04:07;;;;;;;14.52;5.95;;;19.90;99.90;;;;;;5014354;28;20065;-80
2023/10/13 11:06:45;;;;;;;8.80;6.05;;;20.00;99.90;;;;;;5013737;28;20077;-81
2023/10/13 11:11:53;;;;;;;14.88;6.53;;;20.40;99.90;;;;;;5014956;28;20092;-81
2023/10/13 11:14:27;;;;;;;8.93;5.55;;;20.40;99.90;;;;;;5015002;28;20112;-81
2023/10/13 11:17:05;;;;;;;14.52;6.85;;;20.50;99.90;;;;;;5014144;28;20435;-80
2023/10/13 11:19:38;;;;;;;11.65;5.35;;;20.50;99.90;;;;;;5013482;28;20053;-83
2023/10/13 11:22:33;;;;;;;10.35;5.50;;;20.60;99.90;;;;;;5014294;28;20042;-82
2023/10/13 11:25:03;;;;;;;12.75;6.03;;;20.50;99.90;;;;;;5014979;28;20056;-85
2023/10/13 11:30:20;;;;;;;11.63;6.20;;;20.50;99.90;;;;;;5014869;28;20054;-87
2023/10/13 11:32:57;;;;;;;12.82;6.10;;;20.40;99.90;;;;;;5014427;28;20054;-87
2023/10/13 11:35:23;;;;;;;9.20;5.45;;;20.40;99.90;;;;;;5014030;28;20049;-82
2023/10/13 11:38:12;;;;;;;14.07;5.97;;;20.50;99.90;;;;;;5013892;28;20042;-84
2023/10/13 11:40:59;;;;;;;12.98;6.13;;;20.60;99.90;;;;;;5013398;28;20085;-82
2023/10/13 11:43:26;;;;;;;12.93;6.40;;;20.60;99.90;;;;;;5014282;28;20053;-83
2023/10/13 11:45:56;;;;;;;13.25;5.57;;;20.60;99.90;;;;;;5014106;28;20213;-83
2023/10/13 11:48:36;;;;;;;7.82;5.20;;;20.50;99.90;;;;;;5014236;28;20056;-83
2023/10/13 11:51:24;;;;;;;12.27;5.30;;;20.50;99.90;;;;;;5014361;28;20103;-86
2023/10/13 11:53:51;;;;;;;15.05;5.93;;;20.50;99.90;;;;;;5013772;28;20137;-83
2023/10/13 11:56:20;;;;;;;10.45;5.72;;;20.50;99.90;;;;;;5013820;28;20086;-82
2023/10/13 11:58:47;;;;;;;10.95;7.22;;;20.40;99.90;;;;;;5014323;28;20046;-86
2023/10/13 12:09:13;;;;;;;14.73;6.25;;;20.50;99.90;;;;;;5014244;28;20477;-81
2023/10/13 12:11:41;;;;;;;13.68;5.95;;;20.50;99.90;;;;;;5014007;28;20050;-75
2023/10/13 12:14:19;;;;;;;11.35;6.72;;;21.10;99.90;;;;;;5013543;28;20054;-77
2023/10/13 12:16:55;;;;;;;11.65;5.60;;;20.40;99.90;;;;;;5013876;28;20053;-77
2023/10/13 12:19:23;;;;;;;13.35;6.28;;;20.40;99.90;;;;;;5014022;28;20128;-83
2023/10/13 12:21:56;;;;;;;11.30;5.45;;;20.40;99.90;;;;;;5012479;28;20042;-84
2023/10/13 12:27:02;;;;;;;11.10;5.95;;;20.30;99.90;;;;;;5013485;28;20046;-84
2023/10/13 12:29:34;;;;;;;12.00;6.82;;;20.20;99.90;;;;;;5013228;28;20049;-82
2023/10/13 12:32:11;;;;;;;11.48;6.75;;;20.20;99.90;;;;;;5013200;28;20060;-81
2023/10/13 12:54:35;;;;;;;12.65;7.70;;;19.80;99.90;;;;;;5013587;28;20057;-81
2023/10/13 12:56:56;;;;;;;13.43;6.97;;;19.80;99.90;;;;;;5011306;28;20050;-78
2023/10/13 12:59:26;;;;;;;10.02;7.50;;;19.80;99.90;;;;;;5036123;28;20097;-78
2023/10/13 13:01:53;;;;;;;11.68;6.95;;;19.80;99.90;;;;;;5022019;28;20049;-82
2023/10/13 13:04:20;;;;;;;10.05;6.57;;;19.70;99.90;;;;;;5013627;28;20058;-78
2023/10/13 13:06:50;;;;;;;9.07;6.80;;;19.70;99.90;;;;;;5013063;28;20037;-79
2023/10/13 13:09:25;;;;;;;13.65;6.80;;;19.80;99.90;;;;;;5013424;28;20048;-82
2023/10/13 13:11:52;;;;;;;16.08;7.25;;;19.80;99.90;;;;;;5013071;28;20089;-82
2023/10/13 13:14:17;;;;;;;12.30;7.75;;;19.80;99.90;;;;;;5011821;28;20053;-80
2023/10/13 13:16:48;;;;;;;11.85;7.22;;;19.80;99.90;;;;;;5012906;28;20096;-81
2023/10/13 13:19:14;;;;;;;11.45;7.65;;;19.70;99.90;;;;;;5011965;28;20127;-84
2023/10/13 13:21:40;;;;;;;15.10;7.40;;;19.70;99.90;;;;;;5012396;28;20064;-82
2023/10/13 13:24:10;;;;;;;12.20;7.93;;;19.60;99.90;;;;;;4995428;28;20493;-81
2023/10/13 13:26:40;;;;;;;14.30;8.77;;;19.50;99.90;;;;;;5013238;28;20049;-81
2023/10/13 13:29:09;;;;;;;13.73;8.50;;;19.50;99.90;;;;;;5012567;28;20483;-79
2023/10/13 13:31:41;;;;;;;13.00;8.60;;;19.40;99.90;;;;;;5012198;28;20088;-80
2023/10/13 13:34:12;;;;;;;13.80;7.90;;;19.40;99.90;;;;;;5011813;28;20046;-81
2023/10/13 13:36:43;;;;;;;13.77;8.35;;;19.30;99.90;;;;;;5011811;28;20400;-80
2023/10/13 13:39:09;;;;;;;17.45;8.38;;;19.30;99.90;;;;;;5012423;28;20054;-80
2023/10/13 13:41:35;;;;;;;13.15;8.23;;;19.20;99.90;;;;;;5012438;28;20092;-80
2023/10/13 13:44:13;;;;;;;16.38;7.35;;;19.10;99.90;;;;;;5012391;28;20185;-79
2023/10/13 13:46:42;;;;;;;16.23;9.02;;;19.20;99.90;;;;;;5012445;28;20054;-81
2023/10/13 13:49:17;;;;;;;11.27;7.38;;;19.20;99.90;;;;;;5012463;28;20268;-81
2023/10/13 13:51:51;;;;;;;15.43;8.43;;;19.10;99.90;;;;;;5012798;28;20099;-81
2023/10/13 13:54:18;;;;;;;13.35;7.97;;;19.10;99.90;;;;;;5012262;28;20057;-80
2023/10/13 13:56:44;;;;;;;12.35;7.88;;;19.00;99.90;;;;;;5012350;28;20095;-83
2023/10/13 13:59:09;;;;;;;13.27;8.02;;;19.00;99.90;;;;;;5012386;28;20057;-81
2023/10/13 14:01:37;;;;;;;19.95;8.73;;;19.00;99.90;;;;;;5012089;28;20046;-83
2023/10/13 14:04:06;;;;;;;15.70;8.65;;;19.00;99.90;;;;;;5011052;28;20058;-81
2023/10/13 14:06:33;;;;;;;16.13;8.57;;;18.90;99.90;;;;;;5011556;28;20073;-83
2023/10/13 14:09:02;;;;;;;17.70;8.73;;;19.00;99.90;;;;;;5012390;28;20089;-83
2023/10/13 14:16:51;;;;;;;15.40;9.60;;;18.90;99.90;;;;;;5012126;28;20077;-82
2023/10/13 14:19:26;;;;;;;15.40;8.48;;;18.80;99.90;;;;;;5011847;28;20542;-82
2023/10/13 14:21:55;;;;;;;18.55;8.60;;;18.80;99.90;;;;;;5011480;28;20050;-84
2023/10/13 14:24:27;;;;;;;18.02;8.68;;;18.90;99.90;;;;;;5012641;28;20046;-84
2023/10/13 14:27:12;;;;;;;11.67;8.60;;;18.90;99.90;;;;;;5016035;28;20046;-81
2023/10/13 14:29:42;;;;;;;12.73;8.05;;;18.90;99.90;;;;;;5015591;28;20471;-81
2023/10/13 14:32:13;;;;;;;17.35;8.23;;;18.90;99.90;;;;;;5016042;28;20077;-80
2023/10/13 14:34:45;;;;;;;14.40;8.07;;;18.90;99.90;;;;;;5014561;28;20121;-81
2023/10/13 14:37:20;;;;;;;15.23;9.38;;;18.90;99.90;;;;;;5015972;28;20046;-82
2023/10/13 14:39:46;;;;;;;20.98;9.32;;;18.90;99.90;;;;;;5015397;28;20058;-82
2023/10/13 14:42:12;;;;;;;13.10;8.02;;;18.80;99.90;;;;;;5015839;28;20038;-81
2023/10/13 14:44:38;;;;;;;17.63;8.95;;;18.80;99.90;;;;;;5015607;28;20508;-80
2023/10/13 14:47:08;;;;;;;16.55;8.98;;;18.80;99.90;;;;;;5015329;28;20073;-81
2023/10/13 14:49:35;;;;;;;15.15;8.90;;;18.80;99.90;;;;;;5015237;28;20050;-79
2023/10/13 14:52:02;;;;;;;18.45;8.63;;;18.90;99.90;;;;;;5015575;28;20046;-81
2023/10/13 14:54:33;;;;;;;11.75;7.72;;;18.90;99.90;;;;;;5015747;28;20050;-81
2023/10/13 14:57:02;;;;;;;14.32;8.75;;;18.90;99.90;;;;;;5015286;28;20042;-81
2023/10/13 14:59:32;;;;;;;12.75;7.85;;;18.90;99.90;;;;;;5014918;28;20129;-81
2023/10/13 15:02:01;;;;;;;15.23;7.88;;;18.90;99.90;;;;;;5015097;28;20459;-81
2023/10/13 15:04:28;;;;;;;13.85;7.65;;;18.90;99.90;;;;;;5013560;28;20070;-81
2023/10/13 15:06:55;;;;;;;15.02;7.82;;;18.90;99.90;;;;;;5015128;28;20117;-82
2023/10/13 15:09:23;;;;;;;14.10;8.93;;;18.90;99.90;;;;;;5014852;28;20056;-81
2023/10/13 15:11:52;;;;;;;14.15;8.07;;;18.90;99.90;;;;;;5014840;28;20052;-80
2023/10/13 15:14:20;;;;;;;14.73;8.65;;;18.80;99.90;;;;;;5014771;28;20046;-82
2023/10/13 15:16:46;;;;;;;14.13;8.07;;;18.80;99.90;;;;;;5014322;28;20089;-84
2023/10/13 15:19:12;;;;;;;13.70;9.15;;;18.70;99.90;;;;;;5014765;28;20058;-85
2023/10/13 15:21:39;;;;;;;18.00;9.65;;;18.60;99.90;;;;;;5014682;28;20053;-85
2023/10/13 15:24:25;;;;;;;13.93;8.90;;;18.60;99.90;;;;;;5014282;28;20132;-82
2023/10/13 15:26:56;;;;;;;16.88;9.07;;;18.50;99.90;;;;;;5014782;28;20500;-83
2023/10/13 15:29:26;;;;;;;18.58;9.35;;;18.40;99.90;;;;;;5014632;28;20046;-80
2023/10/13 15:34:28;;;;;;;17.33;10.30;;;18.40;99.90;;;;;;5014743;28;20374;-83
2023/10/13 15:36:55;;;;;;;14.63;9.80;;;18.20;99.90;;;;;;5012746;28;20108;-83
2023/10/13 15:39:24;;;;;;;14.18;10.50;;;18.20;99.90;;;;;;5013842;28;20082;-82
2023/10/13 15:41:53;;;;;;;19.77;11.20;;;18.10;99.90;;;;;;5014454;28;20068;-82
2023/10/13 15:44:24;;;;;;;16.25;11.00;;;18.10;99.90;;;;;;5014511;28;20042;-81
2023/10/13 15:46:55;;;;;;;17.55;11.25;;;18.10;99.90;;;;;;5014424;28;20045;-80
2023/10/13 15:49:21;;;;;;;18.42;10.40;;;18.10;99.90;;;;;;5014261;28;20054;-81
2023/10/13 15:51:49;;;;;;;17.15;11.00;;;18.10;99.90;;;;;;5014353;28;20116;-81
2023/10/13 15:54:15;;;;;;;19.38;10.80;;;18.00;99.90;;;;;;5013929;28;20116;-80
2023/10/13 15:56:48;;;;;;;20.85;10.82;;;17.90;99.90;;;;;;5013987;28;20133;-81
2023/10/13 15:59:14;;;;;;;14.70;10.73;;;18.00;99.90;;;;;;5013855;28;20045;-80
2023/10/13 16:01:40;;;;;;;17.42;9.95;;;17.90;99.90;;;;;;5013780;28;20042;-78
2023/10/13 16:04:13;;;;;;;14.93;10.43;;;17.90;99.90;;;;;;5013199;28;20145;-81
2023/10/13 16:06:46;;;;;;;15.52;10.25;;;17.90;99.90;;;;;;5014192;28;20105;-83
2023/10/13 16:09:19;;;;;;;;;;;18.00;99.90;;;;;;5014500;28;20048;-82
2023/10/13 16:11:46;;;;;;;17.90;10.73;;;17.90;99.90;;;;;;5013715;28;19932;-82
2023/10/13 16:14:15;;;;;;;18.48;10.02;;;17.90;99.90;;;;;;5013916;28;20360;-83
2023/10/13 16:16:46;;;;;;;17.02;10.45;;;17.90;99.90;;;;;;5013757;28;20097;-81
2023/10/13 16:19:14;;;;;;;17.42;9.68;;;17.90;99.90;;;;;;5013829;28;20078;-85
2023/10/13 16:21:39;;;;;;;13.93;9.13;;;17.90;99.90;;;;;;5012052;28;20045;-84
2023/10/13 16:24:10;;;;;;;15.75;9.57;;;17.90;99.90;;;;;;5013286;28;20085;-82
2023/10/13 16:26:37;;;;;;;16.50;9.68;;;17.80;99.90;;;;;;5013347;28;20042;-85
2023/10/13 16:29:03;;;;;;;16.85;9.20;;;17.90;99.90;;;;;;5013111;28;20068;-82
2023/10/13 16:31:28;;;;;;;9.95;7.70;;;17.90;99.90;;;;;;5013239;28;20467;-85
2023/10/13 16:33:56;;;;;;;14.35;9.57;;;17.90;99.90;;;;;;5012727;28;20060;-81
2023/10/13 16:36:22;;;;;;;12.77;8.75;;;17.90;99.90;;;;;;5013021;28;20064;-84
2023/10/13 16:38:48;;;;;;;13.10;7.38;;;17.80;99.90;;;;;;5013405;28;20049;-82
2023/10/13 16:41:15;;;;;;;12.18;7.35;;;17.90;99.90;;;;;;5012965;28;20056;-83